sensor_id;sensor_type;location;lat;lon;timestamp;pressure;altitude;pressure_sealevel;temperature;humidity
53011;BME280;42803;55.762;38.084;2023-02-28T00:01:43;100001.88;;;-9.19;100.00
53011;BME280;42803;55.762;38.084;2023-02-28T00:04:14;100001.41;;;-9.17;100.00
53011;BME280;42803;55.762;38.084;2023-02-28T00:06:43;100000.91;;;-9.20;100.00
53011;BME280;42803;55.762;38.084;2023-02-28T00:09:12;99990.34;;;-9.23;100.00
53011;BME280;42803;55.762;38.084;2023-02-28T00:11:41;99994.41;;;-9.29;100.00
53011;BME280;42803;55.762;38.084;2023-02-28T00:14:10;99990.81;;;-9.20;100.00
53011;BME280;42803;55.762;38.084;2023-02-28T00:16:39;99993.78;;;-9.22;100.00
53011;BME280;42803;55.762;38.084;2023-02-28T00:19:08;99986.72;;;-9.19;100.00
53011;BME280;42803;55.762;38.084;2023-02-28T00:21:38;99988.16;;;-9.10;100.00
53011;BME280;42803;55.762;38.084;2023-02-28T00:24:10;99986.84;;;-9.02;100.00
53011;BME280;42803;55.762;38.084;2023-02-28T00:26:39;99981.25;;;-9.11;100.00
53011;BME280;42803;55.762;38.084;2023-02-28T00:29:09;99991.00;;;-9.24;100.00
53011;BME280;42803;55.762;38.084;2023-02-28T00:31:38;99978.94;;;-9.36;100.00
53011;BME280;42803;55.762;38.084;2023-02-28T00:34:07;99976.38;;;-9.42;100.00
53011;BME280;42803;55.762;38.084;2023-02-28T00:36:36;99977.28;;;-9.41;100.00
53011;BME280;42803;55.762;38.084;2023-02-28T00:39:07;99968.53;;;-9.43;100.00
53011;BME280;42803;55.762;38.084;2023-02-28T00:41:36;99966.69;;;-9.44;100.00
53011;BME280;42803;55.762;38.084;2023-02-28T00:44:07;99957.47;;;-9.49;100.00
53011;BME280;42803;55.762;38.084;2023-02-28T00:46:36;99958.25;;;-9.60;100.00
53011;BME280;42803;55.762;38.084;2023-02-28T00:49:06;99954.63;;;-9.57;100.00
53011;BME280;42803;55.762;38.084;2023-02-28T00:51:35;99959.41;;;-9.58;100.00
53011;BME280;42803;55.762;38.084;2023-02-28T00:54:04;99945.38;;;-9.62;100.00
53011;BME280;42803;55.762;38.084;2023-02-28T00:56:35;99947.78;;;-9.52;100.00
53011;BME280;42803;55.762;38.084;2023-02-28T00:59:04;99940.53;;;-9.39;100.00
53011;BME280;42803;55.762;38.084;2023-02-28T01:01:33;99937.81;;;-9.35;100.00
53011;BME280;42803;55.762;38.084;2023-02-28T01:04:03;99929.28;;;-9.41;100.00
53011;BME280;42803;55.762;38.084;2023-02-28T01:06:32;99929.59;;;-9.34;100.00
53011;BME280;42803;55.762;38.084;2023-02-28T01:09:03;99920.63;;;-9.32;100.00
53011;BME280;42803;55.762;38.084;2023-02-28T01:11:34;99919.09;;;-9.20;100.00
53011;BME280;42803;55.762;38.084;2023-02-28T01:14:04;99918.00;;;-9.17;100.00
53011;BME280;42803;55.762;38.084;2023-02-28T01:16:33;99910.41;;;-9.17;100.00
53011;BME280;42803;55.762;38.084;2023-02-28T01:19:02;99906.19;;;-9.27;100.00
53011;BME280;42803;55.762;38.084;2023-02-28T01:21:32;99907.97;;;-9.32;100.00
53011;BME280;42803;55.762;38.084;2023-02-28T01:24:03;99889.19;;;-9.28;100.00
53011;BME280;42803;55.762;38.084;2023-02-28T01:26:33;99884.94;;;-9.39;100.00
53011;BME280;42803;55.762;38.084;2023-02-28T01:29:03;99878.94;;;-9.45;100.00
53011;BME280;42803;55.762;38.084;2023-02-28T01:31:32;99879.38;;;-9.48;100.00
53011;BME280;42803;55.762;38.084;2023-02-28T01:34:02;99877.16;;;-9.35;100.00
53011;BME280;42803;55.762;38.084;2023-02-28T01:36:32;99875.75;;;-9.39;100.00
53011;BME280;42803;55.762;38.084;2023-02-28T01:39:01;99885.41;;;-9.42;100.00
53011;BME280;42803;55.762;38.084;2023-02-28T01:41:31;99875.31;;;-9.36;100.00
53011;BME280;42803;55.762;38.084;2023-02-28T01:44:05;99870.69;;;-9.39;100.00
53011;BME280;42803;55.762;38.084;2023-02-28T01:46:35;99860.56;;;-9.44;100.00
53011;BME280;42803;55.762;38.084;2023-02-28T01:49:08;99852.97;;;-9.44;100.00
53011;BME280;42803;55.762;38.084;2023-02-28T01:51:41;99838.44;;;-9.51;100.00
53011;BME280;42803;55.762;38.084;2023-02-28T01:54:16;99840.56;;;-9.43;100.00
53011;BME280;42803;55.762;38.084;2023-02-28T01:56:50;99840.84;;;-9.41;100.00
53011;BME280;42803;55.762;38.084;2023-02-28T01:59:26;99831.34;;;-9.48;100.00
53011;BME280;42803;55.762;38.084;2023-02-28T02:01:58;99837.13;;;-9.43;100.00
53011;BME280;42803;55.762;38.084;2023-02-28T02:04:32;99828.34;;;-9.51;100.00
53011;BME280;42803;55.762;38.084;2023-02-28T02:07:03;99828.31;;;-9.57;100.00
53011;BME280;42803;55.762;38.084;2023-02-28T02:09:32;99813.34;;;-9.61;100.00
53011;BME280;42803;55.762;38.084;2023-02-28T02:12:10;99815.88;;;-9.61;100.00
53011;BME280;42803;55.762;38.084;2023-02-28T02:14:58;99811.31;;;-9.58;100.00
53011;BME280;42803;55.762;38.084;2023-02-28T02:17:35;99813.16;;;-9.57;100.00
53011;BME280;42803;55.762;38.084;2023-02-28T02:26:35;99805.31;;;-9.58;100.00
53011;BME280;42803;55.762;38.084;2023-02-28T02:29:43;99801.25;;;-9.46;100.00
53011;BME280;42803;55.762;38.084;2023-02-28T02:32:42;99791.03;;;-9.63;100.00
53011;BME280;42803;55.762;38.084;2023-02-28T02:35:24;99796.72;;;-9.70;100.00
53011;BME280;42803;55.762;38.084;2023-02-28T02:37:58;99787.59;;;-9.64;100.00
53011;BME280;42803;55.762;38.084;2023-02-28T02:40:33;99786.22;;;-9.62;100.00
53011;BME280;42803;55.762;38.084;2023-02-28T02:43:07;99782.78;;;-9.62;100.00
53011;BME280;42803;55.762;38.084;2023-02-28T02:45:42;99775.88;;;-9.63;100.00
53011;BME280;42803;55.762;38.084;2023-02-28T02:48:17;99768.75;;;-9.66;100.00
53011;BME280;42803;55.762;38.084;2023-02-28T02:50:55;99757.91;;;-9.70;100.00
53011;BME280;42803;55.762;38.084;2023-02-28T02:53:29;99760.72;;;-9.69;100.00
53011;BME280;42803;55.762;38.084;2023-02-28T02:56:01;99759.31;;;-9.67;100.00
53011;BME280;42803;55.762;38.084;2023-02-28T02:58:36;99753.59;;;-9.66;100.00
53011;BME280;42803;55.762;38.084;2023-02-28T03:01:12;99758.00;;;-9.59;100.00
53011;BME280;42803;55.762;38.084;2023-02-28T03:03:44;99755.19;;;-9.66;100.00
53011;BME280;42803;55.762;38.084;2023-02-28T03:06:15;99755.19;;;-9.66;100.00
53011;BME280;42803;55.762;38.084;2023-02-28T03:08:44;99753.44;;;-9.56;100.00
53011;BME280;42803;55.762;38.084;2023-02-28T03:11:14;99739.72;;;-9.47;100.00
53011;BME280;42803;55.762;38.084;2023-02-28T03:17:30;99737.84;;;-9.53;100.00
53011;BME280;42803;55.762;38.084;2023-02-28T03:20:05;99733.94;;;-9.51;100.00
53011;BME280;42803;55.762;38.084;2023-02-28T03:22:49;99714.44;;;-9.52;100.00
53011;BME280;42803;55.762;38.084;2023-02-28T03:25:31;99719.06;;;-9.44;100.00
53011;BME280;42803;55.762;38.084;2023-02-28T03:28:09;99710.59;;;-9.39;100.00
53011;BME280;42803;55.762;38.084;2023-02-28T03:30:48;99711.97;;;-9.36;100.00
53011;BME280;42803;55.762;38.084;2023-02-28T03:33:24;99708.06;;;-9.39;100.00
53011;BME280;42803;55.762;38.084;2023-02-28T03:35:58;99695.41;;;-9.45;100.00
53011;BME280;42803;55.762;38.084;2023-02-28T03:38:33;99693.09;;;-9.43;100.00
53011;BME280;42803;55.762;38.084;2023-02-28T03:41:08;99686.91;;;-9.45;100.00
53011;BME280;42803;55.762;38.084;2023-02-28T03:43:43;99685.25;;;-9.50;100.00
53011;BME280;42803;55.762;38.084;2023-02-28T03:46:16;99684.59;;;-9.49;100.00
53011;BME280;42803;55.762;38.084;2023-02-28T03:48:51;99672.63;;;-9.50;100.00
53011;BME280;42803;55.762;38.084;2023-02-28T03:51:28;99669.72;;;-9.37;100.00
53011;BME280;42803;55.762;38.084;2023-02-28T03:54:04;99659.63;;;-9.31;100.00
53011;BME280;42803;55.762;38.084;2023-02-28T03:56:38;99653.91;;;-9.30;100.00
53011;BME280;42803;55.762;38.084;2023-02-28T03:59:13;99653.44;;;-9.33;100.00
53011;BME280;42803;55.762;38.084;2023-02-28T04:01:45;99650.41;;;-9.36;100.00
53011;BME280;42803;55.762;38.084;2023-02-28T04:04:16;99647.19;;;-9.35;100.00
53011;BME280;42803;55.762;38.084;2023-02-28T04:06:45;99653.63;;;-9.37;100.00
53011;BME280;42803;55.762;38.084;2023-02-28T04:09:19;99647.47;;;-9.34;100.00
53011;BME280;42803;55.762;38.084;2023-02-28T04:11:51;99643.75;;;-9.36;100.00
53011;BME280;42803;55.762;38.084;2023-02-28T04:14:20;99645.16;;;-9.32;100.00
53011;BME280;42803;55.762;38.084;2023-02-28T04:16:49;99633.69;;;-9.30;100.00
53011;BME280;42803;55.762;38.084;2023-02-28T04:19:20;99630.25;;;-9.25;100.00
53011;BME280;42803;55.762;38.084;2023-02-28T04:21:51;99628.91;;;-9.23;100.00
53011;BME280;42803;55.762;38.084;2023-02-28T04:24:23;99625.44;;;-9.18;100.00
53011;BME280;42803;55.762;38.084;2023-02-28T04:26:54;99632.78;;;-9.25;100.00
53011;BME280;42803;55.762;38.084;2023-02-28T04:29:25;99628.19;;;-9.22;100.00
53011;BME280;42803;55.762;38.084;2023-02-28T04:31:55;99626.38;;;-9.23;100.00
53011;BME280;42803;55.762;38.084;2023-02-28T04:34:26;99622.00;;;-9.13;100.00
53011;BME280;42803;55.762;38.084;2023-02-28T04:36:56;99611.25;;;-9.12;100.00
53011;BME280;42803;55.762;38.084;2023-02-28T04:39:41;99614.91;;;-9.10;100.00
53011;BME280;42803;55.762;38.084;2023-02-28T04:42:11;99607.09;;;-9.05;100.00
53011;BME280;42803;55.762;38.084;2023-02-28T04:44:41;99598.84;;;-8.93;100.00
53011;BME280;42803;55.762;38.084;2023-02-28T04:47:10;99598.63;;;-8.89;100.00
53011;BME280;42803;55.762;38.084;2023-02-28T04:49:39;99600.25;;;-8.84;100.00
53011;BME280;42803;55.762;38.084;2023-02-28T04:52:09;99587.84;;;-8.77;100.00
53011;BME280;42803;55.762;38.084;2023-02-28T04:54:38;99585.31;;;-8.71;100.00
53011;BME280;42803;55.762;38.084;2023-02-28T04:57:09;99580.97;;;-8.61;100.00
53011;BME280;42803;55.762;38.084;2023-02-28T04:59:38;99567.16;;;-8.52;100.00
53011;BME280;42803;55.762;38.084;2023-02-28T05:02:07;99569.47;;;-8.42;100.00
53011;BME280;42803;55.762;38.084;2023-02-28T05:04:36;99554.00;;;-8.32;100.00
53011;BME280;42803;55.762;38.084;2023-02-28T05:07:05;99548.94;;;-8.27;100.00
53011;BME280;42803;55.762;38.084;2023-02-28T05:09:34;99541.56;;;-8.20;100.00
53011;BME280;42803;55.762;38.084;2023-02-28T05:12:03;99527.72;;;-8.11;100.00
53011;BME280;42803;55.762;38.084;2023-02-28T05:14:34;99526.78;;;-8.00;100.00
53011;BME280;42803;55.762;38.084;2023-02-28T05:17:04;99522.59;;;-7.88;100.00
53011;BME280;42803;55.762;38.084;2023-02-28T05:19:33;99504.38;;;-7.74;100.00
53011;BME280;42803;55.762;38.084;2023-02-28T05:22:02;99510.31;;;-7.63;100.00
53011;BME280;42803;55.762;38.084;2023-02-28T05:24:31;99493.88;;;-7.53;100.00
53011;BME280;42803;55.762;38.084;2023-02-28T05:27:00;99483.91;;;-7.41;100.00
53011;BME280;42803;55.762;38.084;2023-02-28T05:29:29;99472.81;;;-7.36;100.00
53011;BME280;42803;55.762;38.084;2023-02-28T05:32:00;99469.50;;;-7.23;100.00
53011;BME280;42803;55.762;38.084;2023-02-28T05:34:29;99464.38;;;-7.18;100.00
53011;BME280;42803;55.762;38.084;2023-02-28T05:36:58;99453.50;;;-7.11;100.00
53011;BME280;42803;55.762;38.084;2023-02-28T05:39:27;99455.06;;;-7.00;100.00
53011;BME280;42803;55.762;38.084;2023-02-28T05:41:56;99434.69;;;-6.95;98.98
53011;BME280;42803;55.762;38.084;2023-02-28T05:44:25;99434.41;;;-6.85;97.45
53011;BME280;42803;55.762;38.084;2023-02-28T05:46:54;99433.22;;;-6.81;95.26
53011;BME280;42803;55.762;38.084;2023-02-28T05:49:25;99428.94;;;-6.70;94.21
53011;BME280;42803;55.762;38.084;2023-02-28T05:51:54;99428.28;;;-6.50;94.23
53011;BME280;42803;55.762;38.084;2023-02-28T05:54:23;99411.59;;;-6.43;91.96
53011;BME280;42803;55.762;38.084;2023-02-28T05:56:52;99426.16;;;-6.23;91.12
53011;BME280;42803;55.762;38.084;2023-02-28T05:59:21;99410.16;;;-6.17;90.19
53011;BME280;42803;55.762;38.084;2023-02-28T06:01:51;99412.56;;;-6.05;88.74
53011;BME280;42803;55.762;38.084;2023-02-28T06:04:21;99395.22;;;-6.02;86.91
53011;BME280;42803;55.762;38.084;2023-02-28T06:07:00;99382.97;;;-6.23;86.13
53011;BME280;42803;55.762;38.084;2023-02-28T06:09:29;99381.91;;;-6.31;86.52
53011;BME280;42803;55.762;38.084;2023-02-28T06:11:59;99381.91;;;-6.31;87.51
53011;BME280;42803;55.762;38.084;2023-02-28T06:14:30;99359.22;;;-6.24;87.95
53011;BME280;42803;55.762;38.084;2023-02-28T06:17:01;99374.75;;;-6.09;87.88
53011;BME280;42803;55.762;38.084;2023-02-28T06:19:30;99345.47;;;-5.69;86.54
53011;BME280;42803;55.762;38.084;2023-02-28T06:22:01;99328.53;;;-5.63;84.54
53011;BME280;42803;55.762;38.084;2023-02-28T06:24:30;99329.47;;;-5.50;86.03
53011;BME280;42803;55.762;38.084;2023-02-28T06:26:59;99337.84;;;-5.38;84.35
53011;BME280;42803;55.762;38.084;2023-02-28T06:29:33;99324.00;;;-5.27;84.15
53011;BME280;42803;55.762;38.084;2023-02-28T06:32:20;99318.25;;;-5.13;83.70
53011;BME280;42803;55.762;38.084;2023-02-28T06:34:49;99326.97;;;-5.11;81.60
53011;BME280;42803;55.762;38.084;2023-02-28T06:37:20;99340.31;;;-4.81;82.21
53011;BME280;42803;55.762;38.084;2023-02-28T06:39:49;99330.00;;;-4.50;80.53
53011;BME280;42803;55.762;38.084;2023-02-28T06:42:18;99332.91;;;-4.22;78.64
53011;BME280;42803;55.762;38.084;2023-02-28T06:44:47;99333.56;;;-4.30;76.63
53011;BME280;42803;55.762;38.084;2023-02-28T06:47:16;99311.47;;;-4.17;78.27
53011;BME280;42803;55.762;38.084;2023-02-28T06:49:45;99310.84;;;-4.08;77.68
53011;BME280;42803;55.762;38.084;2023-02-28T06:52:14;99284.75;;;-4.00;76.97
53011;BME280;42803;55.762;38.084;2023-02-28T06:54:45;99275.63;;;-3.98;77.78
53011;BME280;42803;55.762;38.084;2023-02-28T06:57:14;99279.09;;;-3.98;77.61
53011;BME280;42803;55.762;38.084;2023-02-28T06:59:43;99259.69;;;-4.10;76.74
53011;BME280;42803;55.762;38.084;2023-02-28T07:02:12;99253.81;;;-3.96;78.03
53011;BME280;42803;55.762;38.084;2023-02-28T07:04:41;99265.31;;;-3.73;79.14
53011;BME280;42803;55.762;38.084;2023-02-28T07:07:12;99233.50;;;-3.89;78.22
53011;BME280;42803;55.762;38.084;2023-02-28T07:09:41;99235.59;;;-3.99;78.03
53011;BME280;42803;55.762;38.084;2023-02-28T07:12:11;99227.78;;;-3.94;78.21
53011;BME280;42803;55.762;38.084;2023-02-28T07:14:40;99243.41;;;-3.78;77.81
53011;BME280;42803;55.762;38.084;2023-02-28T07:17:10;99229.06;;;-3.50;78.46
53011;BME280;42803;55.762;38.084;2023-02-28T07:19:39;99232.69;;;-3.48;77.91
53011;BME280;42803;55.762;38.084;2023-02-28T07:22:08;99225.78;;;-3.49;79.25
53011;BME280;42803;55.762;38.084;2023-02-28T07:24:37;99216.34;;;-3.43;79.20
53011;BME280;42803;55.762;38.084;2023-02-28T07:27:06;99202.47;;;-3.45;79.62
53011;BME280;42803;55.762;38.084;2023-02-28T07:29:37;99193.47;;;-3.29;80.07
53011;BME280;42803;55.762;38.084;2023-02-28T07:32:06;99192.88;;;-3.33;79.11
53011;BME280;42803;55.762;38.084;2023-02-28T07:34:35;99194.97;;;-3.24;78.92
53011;BME280;42803;55.762;38.084;2023-02-28T07:37:04;99181.47;;;-3.23;79.55
53011;BME280;42803;55.762;38.084;2023-02-28T07:39:33;99180.41;;;-3.17;79.58
53011;BME280;42803;55.762;38.084;2023-02-28T07:42:04;99172.81;;;-3.03;78.97
53011;BME280;42803;55.762;38.084;2023-02-28T07:44:33;99166.88;;;-2.82;80.06
53011;BME280;42803;55.762;38.084;2023-02-28T07:47:05;99173.09;;;-2.80;79.43
53011;BME280;42803;55.762;38.084;2023-02-28T07:49:34;99166.34;;;-2.73;79.73
53011;BME280;42803;55.762;38.084;2023-02-28T07:52:04;99157.69;;;-2.32;79.85
53011;BME280;42803;55.762;38.084;2023-02-28T07:54:34;99185.22;;;-2.51;79.18
53011;BME280;42803;55.762;38.084;2023-02-28T07:57:03;99172.75;;;-2.69;79.31
53011;BME280;42803;55.762;38.084;2023-02-28T07:59:32;99154.13;;;-2.82;80.52
53011;BME280;42803;55.762;38.084;2023-02-28T08:02:01;99164.19;;;-2.70;81.80
53011;BME280;42803;55.762;38.084;2023-02-28T08:04:33;99162.00;;;-2.66;81.88
53011;BME280;42803;55.762;38.084;2023-02-28T08:07:02;99156.19;;;-2.51;82.27
53011;BME280;42803;55.762;38.084;2023-02-28T08:09:32;99139.06;;;-2.38;81.13
53011;BME280;42803;55.762;38.084;2023-02-28T08:12:01;99147.78;;;-2.57;81.46
53011;BME280;42803;55.762;38.084;2023-02-28T08:14:30;99138.66;;;-2.48;83.11
53011;BME280;42803;55.762;38.084;2023-02-28T08:16:59;99142.28;;;-2.60;82.37
53011;BME280;42803;55.762;38.084;2023-02-28T08:19:29;99129.91;;;-2.57;81.61
53011;BME280;42803;55.762;38.084;2023-02-28T08:21:59;99112.38;;;-2.61;83.52
53011;BME280;42803;55.762;38.084;2023-02-28T08:24:28;99122.41;;;-2.56;84.09
53011;BME280;42803;55.762;38.084;2023-02-28T08:26:57;99108.78;;;-2.21;83.24
53011;BME280;42803;55.762;38.084;2023-02-28T08:29:26;99097.81;;;-2.19;83.14
53011;BME280;42803;55.762;38.084;2023-02-28T08:31:57;99108.75;;;-2.35;83.00
53011;BME280;42803;55.762;38.084;2023-02-28T08:34:26;99078.81;;;-2.43;83.71
53011;BME280;42803;55.762;38.084;2023-02-28T08:36:55;99083.22;;;-2.13;85.32
53011;BME280;42803;55.762;38.084;2023-02-28T08:39:25;99098.56;;;-2.21;84.29
53011;BME280;42803;55.762;38.084;2023-02-28T08:41:54;99114.97;;;-2.26;83.78
53011;BME280;42803;55.762;38.084;2023-02-28T08:44:34;99129.72;;;-2.45;85.06
53011;BME280;42803;55.762;38.084;2023-02-28T08:47:03;99149.25;;;-2.66;86.60
53011;BME280;42803;55.762;38.084;2023-02-28T08:49:32;99149.69;;;-2.90;87.12
53011;BME280;42803;55.762;38.084;2023-02-28T08:52:01;99118.91;;;-2.78;88.22
53011;BME280;42803;55.762;38.084;2023-02-28T08:54:32;99142.84;;;-2.70;88.54
53011;BME280;42803;55.762;38.084;2023-02-28T08:57:02;99137.72;;;-2.56;86.09
53011;BME280;42803;55.762;38.084;2023-02-28T08:59:32;99136.84;;;-2.49;86.29
53011;BME280;42803;55.762;38.084;2023-02-28T09:02:01;99128.81;;;-2.59;86.92
53011;BME280;42803;55.762;38.084;2023-02-28T09:04:30;99118.94;;;-2.63;88.52
53011;BME280;42803;55.762;38.084;2023-02-28T09:06:59;99113.47;;;-2.66;90.09
53011;BME280;42803;55.762;38.084;2023-02-28T09:09:28;99107.91;;;-2.91;92.86
53011;BME280;42803;55.762;38.084;2023-02-28T09:11:58;99095.88;;;-2.92;94.86
53011;BME280;42803;55.762;38.084;2023-02-28T09:14:28;99084.56;;;-2.94;94.17
53011;BME280;42803;55.762;38.084;2023-02-28T09:16:58;99079.31;;;-2.88;93.82
53011;BME280;42803;55.762;38.084;2023-02-28T09:19:27;99070.38;;;-2.85;93.26
53011;BME280;42803;55.762;38.084;2023-02-28T09:21:56;99067.44;;;-2.88;93.86
53011;BME280;42803;55.762;38.084;2023-02-28T09:24:25;99059.78;;;-2.88;93.43
53011;BME280;42803;55.762;38.084;2023-02-28T09:26:54;99071.84;;;-2.80;93.47
53011;BME280;42803;55.762;38.084;2023-02-28T09:29:34;99064.56;;;-2.70;93.85
53011;BME280;42803;55.762;38.084;2023-02-28T09:32:04;99062.38;;;-2.66;92.84
53011;BME280;42803;55.762;38.084;2023-02-28T09:34:33;99072.22;;;-2.70;91.68
53011;BME280;42803;55.762;38.084;2023-02-28T09:37:04;99063.81;;;-2.68;91.55
53011;BME280;42803;55.762;38.084;2023-02-28T09:39:33;99057.63;;;-2.63;91.15
53011;BME280;42803;55.762;38.084;2023-02-28T09:42:04;99067.50;;;-2.38;91.83
53011;BME280;42803;55.762;38.084;2023-02-28T09:44:38;99048.88;;;-2.23;92.03
53011;BME280;42803;55.762;38.084;2023-02-28T09:47:14;99051.78;;;-2.41;90.43
53011;BME280;42803;55.762;38.084;2023-02-28T09:49:47;99047.06;;;-2.38;89.77
53011;BME280;42803;55.762;38.084;2023-02-28T09:52:19;99048.88;;;-2.51;89.59
53011;BME280;42803;55.762;38.084;2023-02-28T09:54:49;99017.28;;;-2.45;88.82
53011;BME280;42803;55.762;38.084;2023-02-28T09:57:29;99038.66;;;-2.58;88.75
53011;BME280;42803;55.762;38.084;2023-02-28T10:00:10;99030.63;;;-2.47;89.21
53011;BME280;42803;55.762;38.084;2023-02-28T10:03:08;99018.19;;;-2.23;89.16
53011;BME280;42803;55.762;38.084;2023-02-28T10:05:43;99016.22;;;-2.32;88.74
53011;BME280;42803;55.762;38.084;2023-02-28T10:08:19;99017.13;;;-2.39;89.48
53011;BME280;42803;55.762;38.084;2023-02-28T10:10:53;99016.56;;;-2.29;89.10
53011;BME280;42803;55.762;38.084;2023-02-28T10:13:27;99013.47;;;-2.41;89.05
53011;BME280;42803;55.762;38.084;2023-02-28T10:16:03;99004.72;;;-2.36;89.45
53011;BME280;42803;55.762;38.084;2023-02-28T10:18:46;98999.41;;;-2.45;88.28
53011;BME280;42803;55.762;38.084;2023-02-28T10:21:21;98985.00;;;-2.44;89.39
53011;BME280;42803;55.762;38.084;2023-02-28T10:23:53;98982.09;;;-2.40;89.77
53011;BME280;42803;55.762;38.084;2023-02-28T10:26:26;98979.16;;;-2.43;89.61
53011;BME280;42803;55.762;38.084;2023-02-28T10:28:59;98972.56;;;-2.41;89.55
53011;BME280;42803;55.762;38.084;2023-02-28T10:31:32;98970.59;;;-2.43;89.21
53011;BME280;42803;55.762;38.084;2023-02-28T10:34:02;98960.75;;;-2.48;89.13
53011;BME280;42803;55.762;38.084;2023-02-28T10:36:37;98958.72;;;-2.57;90.31
53011;BME280;42803;55.762;38.084;2023-02-28T10:39:35;98955.25;;;-2.36;91.12
53011;BME280;42803;55.762;38.084;2023-02-28T10:42:20;98960.91;;;-2.32;90.03
53011;BME280;42803;55.762;38.084;2023-02-28T10:44:49;98952.88;;;-2.42;89.89
53011;BME280;42803;55.762;38.084;2023-02-28T10:47:20;98956.19;;;-2.57;91.25
53011;BME280;42803;55.762;38.084;2023-02-28T10:49:49;98961.13;;;-2.73;91.33
53011;BME280;42803;55.762;38.084;2023-02-28T10:52:36;98957.66;;;-2.59;91.78
53011;BME280;42803;55.762;38.084;2023-02-28T10:55:21;98966.75;;;-2.54;92.50
53011;BME280;42803;55.762;38.084;2023-02-28T10:57:51;98944.84;;;-2.52;92.29
53011;BME280;42803;55.762;38.084;2023-02-28T11:00:23;98947.03;;;-2.48;91.60
53011;BME280;42803;55.762;38.084;2023-02-28T11:02:54;98928.81;;;-2.58;91.51
53011;BME280;42803;55.762;38.084;2023-02-28T11:05:26;98943.41;;;-2.72;92.24
53011;BME280;42803;55.762;38.084;2023-02-28T11:07:59;98932.44;;;-2.63;93.49
53011;BME280;42803;55.762;38.084;2023-02-28T11:10:32;98937.91;;;-2.60;93.47
53011;BME280;42803;55.762;38.084;2023-02-28T11:13:02;98922.06;;;-2.58;92.74
53011;BME280;42803;55.762;38.084;2023-02-28T11:15:33;98933.91;;;-2.51;92.83
53011;BME280;42803;55.762;38.084;2023-02-28T11:18:15;98927.31;;;-2.42;93.25
53011;BME280;42803;55.762;38.084;2023-02-28T11:20:49;98927.28;;;-2.21;93.05
53011;BME280;42803;55.762;38.084;2023-02-28T11:23:19;98932.03;;;-2.31;92.70
53011;BME280;42803;55.762;38.084;2023-02-28T11:25:50;98920.00;;;-2.32;92.95
53011;BME280;42803;55.762;38.084;2023-02-28T11:28:27;98917.63;;;-2.30;92.34
53011;BME280;42803;55.762;38.084;2023-02-28T11:31:03;98915.19;;;-2.22;92.98
53011;BME280;42803;55.762;38.084;2023-02-28T11:33:41;98916.19;;;-2.35;93.59
53011;BME280;42803;55.762;38.084;2023-02-28T11:36:14;98908.34;;;-2.44;94.77
53011;BME280;42803;55.762;38.084;2023-02-28T11:38:47;98909.06;;;-2.38;95.46
53011;BME280;42803;55.762;38.084;2023-02-28T11:41:36;98908.47;;;-2.21;95.51
53011;BME280;42803;55.762;38.084;2023-02-28T11:44:28;98915.75;;;-2.17;96.50
53011;BME280;42803;55.762;38.084;2023-02-28T11:47:05;98921.56;;;-2.11;95.59
53011;BME280;42803;55.762;38.084;2023-02-28T11:49:45;98913.31;;;-2.01;97.52
53011;BME280;42803;55.762;38.084;2023-02-28T11:52:20;98901.88;;;-2.19;97.71
53011;BME280;42803;55.762;38.084;2023-02-28T11:55:01;98909.78;;;-2.39;100.00
53011;BME280;42803;55.762;38.084;2023-02-28T12:00:36;98898.53;;;-2.62;100.00
53011;BME280;42803;55.762;38.084;2023-02-28T12:03:16;98905.28;;;-2.70;100.00
53011;BME280;42803;55.762;38.084;2023-02-28T12:06:01;98892.53;;;-2.70;100.00
53011;BME280;42803;55.762;38.084;2023-02-28T12:08:44;98891.63;;;-2.78;100.00
53011;BME280;42803;55.762;38.084;2023-02-28T12:11:23;98888.69;;;-2.81;100.00
53011;BME280;42803;55.762;38.084;2023-02-28T12:14:09;98878.47;;;-2.81;100.00
53011;BME280;42803;55.762;38.084;2023-02-28T12:16:52;98875.78;;;-2.89;100.00
53011;BME280;42803;55.762;38.084;2023-02-28T12:19:27;98887.06;;;-3.02;100.00
53011;BME280;42803;55.762;38.084;2023-02-28T12:22:15;98875.56;;;-2.98;100.00
53011;BME280;42803;55.762;38.084;2023-02-28T12:24:58;98880.13;;;-3.03;100.00
53011;BME280;42803;55.762;38.084;2023-02-28T12:27:34;98868.47;;;-3.08;100.00
53011;BME280;42803;55.762;38.084;2023-02-28T12:30:08;98875.59;;;-3.12;100.00
53011;BME280;42803;55.762;38.084;2023-02-28T12:32:45;98879.78;;;-3.20;100.00
53011;BME280;42803;55.762;38.084;2023-02-28T12:35:19;98881.41;;;-3.21;100.00
53011;BME280;42803;55.762;38.084;2023-02-28T12:37:55;98870.13;;;-3.23;100.00
53011;BME280;42803;55.762;38.084;2023-02-28T12:40:41;98873.22;;;-3.18;100.00
53011;BME280;42803;55.762;38.084;2023-02-28T12:43:13;98854.44;;;-3.19;100.00
53011;BME280;42803;55.762;38.084;2023-02-28T12:45:46;98851.53;;;-3.22;100.00
53011;BME280;42803;55.762;38.084;2023-02-28T12:48:19;98847.91;;;-3.24;100.00
53011;BME280;42803;55.762;38.084;2023-02-28T12:50:50;98837.69;;;-3.24;100.00
53011;BME280;42803;55.762;38.084;2023-02-28T12:53:25;98839.50;;;-3.23;100.00
53011;BME280;42803;55.762;38.084;2023-02-28T12:56:07;98815.78;;;-3.14;100.00
53011;BME280;42803;55.762;38.084;2023-02-28T12:58:39;98798.09;;;-3.06;100.00
53011;BME280;42803;55.762;38.084;2023-02-28T13:01:32;98796.25;;;-3.00;100.00
53011;BME280;42803;55.762;38.084;2023-02-28T13:04:24;98795.38;;;-3.07;100.00
53011;BME280;42803;55.762;38.084;2023-02-28T13:07:10;98799.00;;;-3.05;100.00
53011;BME280;42803;55.762;38.084;2023-02-28T13:09:52;98797.91;;;-3.00;100.00
53011;BME280;42803;55.762;38.084;2023-02-28T13:12:22;98795.53;;;-2.99;100.00
53011;BME280;42803;55.762;38.084;2023-02-28T13:15:15;98788.97;;;-3.04;100.00
53011;BME280;42803;55.762;38.084;2023-02-28T13:17:50;98786.22;;;-3.05;100.00
53011;BME280;42803;55.762;38.084;2023-02-28T13:20:21;98786.97;;;-3.06;100.00
53011;BME280;42803;55.762;38.084;2023-02-28T13:22:53;98791.69;;;-3.09;100.00
53011;BME280;42803;55.762;38.084;2023-02-28T13:25:54;98784.03;;;-3.02;100.00
53011;BME280;42803;55.762;38.084;2023-02-28T13:40:49;98773.06;;;-2.87;100.00